createdAt,value
2022-11-29T00:02:04.401Z,4.00
2022-11-29T00:04:31.136Z,4.10
2022-11-29T00:06:57.969Z,4.10
2022-11-29T00:09:24.637Z,4.00
2022-11-29T00:12:10.037Z,4.10
2022-11-29T00:14:37.659Z,4.10
2022-11-29T00:17:05.887Z,4.10
2022-11-29T00:19:33.461Z,4.10
2022-11-29T00:22:00.606Z,4.10
2022-11-29T00:24:27.452Z,4.10
2022-11-29T00:26:54.053Z,4.10
2022-11-29T00:29:20.690Z,4.10
2022-11-29T00:31:47.336Z,4.10
2022-11-29T00:34:14.077Z,4.10
2022-11-29T00:36:40.709Z,4.10
2022-11-29T00:39:07.728Z,4.10
2022-11-29T00:41:35.241Z,4.10
2022-11-29T00:44:13.911Z,4.10
2022-11-29T00:46:43.555Z,4.10
2022-11-29T00:49:10.226Z,4.10
2022-11-29T00:51:37.005Z,4.10
2022-11-29T00:54:03.742Z,4.10
2022-11-29T00:56:30.510Z,4.10
2022-11-29T00:58:57.187Z,4.10
2022-11-29T01:01:23.896Z,4.10
2022-11-29T01:03:50.645Z,4.10
2022-11-29T01:06:17.974Z,4.20
2022-11-29T01:08:45.747Z,4.10
2022-11-29T01:11:13.994Z,4.10
2022-11-29T01:13:41.219Z,4.10
2022-11-29T01:16:08.389Z,4.10
2022-11-29T01:18:37.437Z,4.10
2022-11-29T01:21:06.011Z,4.10
2022-11-29T01:23:33.538Z,4.10
2022-11-29T01:26:07.967Z,4.10
2022-11-29T01:28:35.013Z,4.10
2022-11-29T01:31:08.396Z,4.10
2022-11-29T01:33:35.380Z,4.10
2022-11-29T01:36:02.512Z,4.00
2022-11-29T01:38:29.211Z,4.10
2022-11-29T01:41:00.258Z,4.00
2022-11-29T01:43:27.282Z,4.00
2022-11-29T01:45:54.269Z,4.10
2022-11-29T01:48:26.144Z,4.00
2022-11-29T01:50:53.487Z,4.00
2022-11-29T01:53:20.824Z,4.00
2022-11-29T01:55:50.794Z,4.00
2022-11-29T01:58:17.879Z,4.00
2022-11-29T02:00:44.667Z,4.00
2022-11-29T02:03:19.071Z,4.00
2022-11-29T02:05:47.655Z,4.00
2022-11-29T02:08:15.504Z,4.00
2022-11-29T02:11:06.855Z,4.00
2022-11-29T02:13:39.930Z,4.00
2022-11-29T02:16:30.275Z,4.00
2022-11-29T02:19:03.419Z,4.00
2022-11-29T02:21:33.242Z,4.00
2022-11-29T02:24:11.201Z,4.00
2022-11-29T02:26:56.721Z,4.00
2022-11-29T02:29:34.508Z,4.00
2022-11-29T02:32:20.186Z,4.00
2022-11-29T02:34:53.080Z,3.90
2022-11-29T02:37:22.734Z,3.90
2022-11-29T02:39:55.379Z,4.00
2022-11-29T02:42:54.079Z,4.00
2022-11-29T02:45:26.030Z,4.00
2022-11-29T02:47:53.723Z,4.00
2022-11-29T02:50:23.474Z,4.00
2022-11-29T02:52:59.174Z,4.00
2022-11-29T02:55:33.455Z,4.00
2022-11-29T02:58:11.659Z,4.00
2022-11-29T03:00:41.231Z,4.00
2022-11-29T03:03:43.585Z,4.00
2022-11-29T03:06:28.689Z,4.00
2022-11-29T03:09:16.498Z,4.00
2022-11-29T03:12:02.022Z,4.00
2022-11-29T03:14:32.932Z,4.00
2022-11-29T03:17:18.326Z,4.10
2022-11-29T03:19:51.043Z,4.10
2022-11-29T03:22:17.631Z,4.10
2022-11-29T03:24:54.664Z,4.10
2022-11-29T03:27:23.989Z,4.10
2022-11-29T03:29:52.961Z,4.10
2022-11-29T03:32:27.588Z,4.10
2022-11-29T03:35:06.531Z,4.10
2022-11-29T03:37:48.431Z,4.20
2022-11-29T03:40:18.209Z,4.20
2022-11-29T03:42:44.850Z,4.20
2022-11-29T03:45:17.529Z,4.20
2022-11-29T03:47:59.796Z,4.20
2022-11-29T03:50:32.813Z,4.20
2022-11-29T03:53:20.593Z,4.20
2022-11-29T03:56:01.020Z,4.20
2022-11-29T03:58:54.089Z,4.20
2022-11-29T04:01:32.964Z,4.20
2022-11-29T04:04:08.881Z,4.20
2022-11-29T04:06:47.774Z,4.20
2022-11-29T04:09:23.559Z,4.20
2022-11-29T04:12:06.139Z,4.20
2022-11-29T04:14:45.136Z,4.20
2022-11-29T04:17:11.948Z,4.20
2022-11-29T04:19:38.560Z,4.20
2022-11-29T04:22:08.369Z,4.20
2022-11-29T04:24:41.872Z,4.20
2022-11-29T04:27:20.944Z,4.20
2022-11-29T04:29:50.568Z,4.20
2022-11-29T04:32:36.314Z,4.20
2022-11-29T04:35:14.822Z,4.20
2022-11-29T04:37:54.125Z,4.20
2022-11-29T04:40:23.784Z,4.20
2022-11-29T04:43:05.705Z,4.20
2022-11-29T04:45:51.259Z,4.20
2022-11-29T04:48:17.911Z,4.20
2022-11-29T04:51:04.500Z,4.20
2022-11-29T04:53:31.187Z,4.20
2022-11-29T04:56:07.215Z,4.20
2022-11-29T04:58:46.132Z,4.20
2022-11-29T05:01:35.211Z,4.20
2022-11-29T05:04:10.155Z,4.20
2022-11-29T05:06:55.703Z,4.20
2022-11-29T05:09:27.706Z,4.20
2022-11-29T05:12:05.819Z,4.20
2022-11-29T05:14:42.268Z,4.20
2022-11-29T05:17:24.268Z,4.20
2022-11-29T05:20:00.308Z,4.20
2022-11-29T05:22:31.580Z,4.20
2022-11-29T05:25:07.366Z,4.20
2022-11-29T05:27:36.953Z,4.20
2022-11-29T05:30:11.339Z,4.20
2022-11-29T05:32:57.638Z,4.20
2022-11-29T05:36:02.918Z,4.20
2022-11-29T05:38:54.738Z,4.20
2022-11-29T05:41:21.369Z,4.10
2022-11-29T05:43:48.307Z,4.10
2022-11-29T05:46:14.898Z,4.10
2022-11-29T05:48:46.069Z,4.10
2022-11-29T05:51:20.553Z,4.10
2022-11-29T05:53:47.145Z,4.10
2022-11-29T05:56:16.747Z,4.10
2022-11-29T05:58:52.321Z,4.10
2022-11-29T06:01:22.011Z,4.20
2022-11-29T06:03:48.678Z,4.20
2022-11-29T06:06:19.227Z,4.20
2022-11-29T06:08:49.090Z,4.20
2022-11-29T06:11:20.689Z,4.20
2022-11-29T06:14:03.322Z,4.20
2022-11-29T06:16:49.810Z,4.20
2022-11-29T06:19:39.698Z,4.20
2022-11-29T06:22:20.807Z,4.20
2022-11-29T06:25:02.149Z,4.10
2022-11-29T06:27:49.235Z,4.10
2022-11-29T06:30:18.163Z,4.10
2022-11-29T06:32:54.443Z,4.10
2022-11-29T06:35:40.035Z,4.20
2022-11-29T06:38:12.463Z,4.20
2022-11-29T06:40:39.274Z,4.20
2022-11-29T06:43:06.119Z,4.20
2022-11-29T06:45:32.959Z,4.20
2022-11-29T06:48:04.643Z,4.20
2022-11-29T06:50:46.723Z,4.20
2022-11-29T06:53:13.380Z,4.20
2022-11-29T06:55:44.171Z,4.20
2022-11-29T06:58:35.677Z,4.20
2022-11-29T07:01:02.877Z,4.30
2022-11-29T07:03:32.657Z,4.20
2022-11-29T07:06:01.408Z,4.30
2022-11-29T07:08:28.195Z,4.30
2022-11-29T07:10:55.685Z,4.30
2022-11-29T07:13:22.697Z,4.30
2022-11-29T07:16:03.260Z,4.30
2022-11-29T07:18:30.046Z,4.30
2022-11-29T07:21:20.063Z,4.30
2022-11-29T07:23:47.063Z,4.30
2022-11-29T07:26:15.179Z,4.30
2022-11-29T07:28:49.293Z,4.40
2022-11-29T07:31:15.998Z,4.40
2022-11-29T07:33:42.729Z,4.40
2022-11-29T07:36:17.199Z,4.40
2022-11-29T07:38:50.170Z,4.50
2022-11-29T07:41:31.078Z,4.50
2022-11-29T07:44:05.844Z,4.50
2022-11-29T07:46:32.605Z,4.50
2022-11-29T07:48:59.343Z,4.50
2022-11-29T07:51:26.032Z,4.50
2022-11-29T07:53:52.765Z,4.50
2022-11-29T07:56:19.491Z,4.50
2022-11-29T07:58:46.761Z,4.50
2022-11-29T08:01:13.566Z,4.50
2022-11-29T08:03:41.372Z,4.50
2022-11-29T08:06:08.188Z,4.50
2022-11-29T08:08:37.849Z,4.50
2022-11-29T08:11:19.350Z,4.50
2022-11-29T08:13:46.005Z,4.60
2022-11-29T08:16:16.159Z,4.60
2022-11-29T08:18:42.915Z,4.70
2022-11-29T08:21:09.597Z,4.70
2022-11-29T08:23:36.348Z,4.70
2022-11-29T08:26:03.454Z,4.70
2022-11-29T08:28:30.123Z,4.80
2022-11-29T08:31:00.613Z,4.90
2022-11-29T08:33:27.365Z,4.90
2022-11-29T08:35:54.015Z,4.90
2022-11-29T08:38:20.654Z,4.90
2022-11-29T08:40:47.425Z,4.90
2022-11-29T08:43:14.165Z,5.00
2022-11-29T08:45:40.889Z,5.00
2022-11-29T08:48:07.567Z,5.10
2022-11-29T08:50:34.207Z,5.10
2022-11-29T08:53:19.546Z,5.20
2022-11-29T08:55:46.781Z,5.20
2022-11-29T08:58:14.459Z,5.20
2022-11-29T09:00:42.579Z,5.20
2022-11-29T09:03:28.067Z,5.20
2022-11-29T09:05:54.945Z,5.30
2022-11-29T09:08:21.637Z,5.40
2022-11-29T09:10:48.490Z,5.30
2022-11-29T09:13:15.148Z,5.30
2022-11-29T09:15:43.350Z,5.30
2022-11-29T09:18:10.135Z,5.40
2022-11-29T09:20:36.871Z,5.40
2022-11-29T09:23:03.553Z,5.40
2022-11-29T09:25:34.376Z,5.50
2022-11-29T09:28:02.859Z,5.60
2022-11-29T09:30:31.525Z,5.60
2022-11-29T09:33:05.115Z,5.50
2022-11-29T09:35:38.026Z,5.50
2022-11-29T09:38:05.608Z,5.50
2022-11-29T09:40:37.381Z,5.60
2022-11-29T09:43:22.654Z,5.60
2022-11-29T09:45:53.723Z,5.70
2022-11-29T09:48:39.225Z,5.60
2022-11-29T09:51:17.713Z,5.60
2022-11-29T09:53:47.383Z,5.60
2022-11-29T09:56:28.898Z,5.60
2022-11-29T09:58:58.914Z,5.60
2022-11-29T10:01:36.822Z,5.70
2022-11-29T10:04:11.011Z,5.70
2022-11-29T10:06:43.630Z,5.70
2022-11-29T10:09:16.412Z,5.80
2022-11-29T10:11:58.500Z,5.80
2022-11-29T10:14:28.850Z,5.80
2022-11-29T10:17:00.674Z,5.90
2022-11-29T10:19:38.164Z,5.90
2022-11-29T10:22:17.981Z,5.90
2022-11-29T10:24:50.017Z,5.90
2022-11-29T10:27:21.292Z,6.00
2022-11-29T10:29:50.995Z,6.10
2022-11-29T10:32:20.423Z,6.10
2022-11-29T10:34:50.453Z,6.10
2022-11-29T10:37:21.321Z,6.20
2022-11-29T10:39:50.566Z,6.30
2022-11-29T10:42:40.169Z,6.30
2022-11-29T10:45:15.464Z,6.40
2022-11-29T10:47:43.198Z,6.40
2022-11-29T10:50:14.384Z,6.50
2022-11-29T10:52:41.057Z,6.50
2022-11-29T10:55:12.455Z,6.60
2022-11-29T10:57:59.010Z,6.60
2022-11-29T11:00:26.824Z,6.70
2022-11-29T11:02:53.468Z,6.70
2022-11-29T11:05:25.164Z,6.70
2022-11-29T11:07:58.718Z,6.90
2022-11-29T11:10:29.565Z,7.00
2022-11-29T11:13:03.713Z,7.00
2022-11-29T11:15:31.511Z,7.10
2022-11-29T11:18:04.836Z,7.10
2022-11-29T11:20:42.476Z,7.10
2022-11-29T11:23:26.318Z,7.20
2022-11-29T11:26:12.417Z,7.20
2022-11-29T11:28:49.613Z,7.20
2022-11-29T11:31:40.643Z,7.20
2022-11-29T11:34:28.981Z,7.20
2022-11-29T11:37:16.152Z,7.00
2022-11-29T11:39:43.778Z,6.90
2022-11-29T11:42:36.875Z,6.80
2022-11-29T11:45:05.678Z,6.80
2022-11-29T11:47:37.797Z,6.80
2022-11-29T11:50:07.555Z,6.80
2022-11-29T11:52:40.216Z,6.80
2022-11-29T11:55:26.732Z,6.80
2022-11-29T11:58:36.744Z,6.90
2022-11-29T12:01:25.040Z,6.90
2022-11-29T12:04:03.996Z,7.00
2022-11-29T12:06:30.753Z,7.00
2022-11-29T12:09:46.625Z,7.00
2022-11-29T12:12:27.310Z,6.90
2022-11-29T12:15:16.866Z,7.00
2022-11-29T12:17:49.306Z,7.00
2022-11-29T12:20:34.841Z,6.90
2022-11-29T12:23:13.941Z,6.80
2022-11-29T12:25:56.652Z,6.90
2022-11-29T12:28:31.741Z,6.90
2022-11-29T12:31:01.456Z,7.00
2022-11-29T12:33:31.449Z,6.90
2022-11-29T12:36:01.054Z,7.00
2022-11-29T12:38:52.695Z,6.90
2022-11-29T12:41:38.605Z,6.80
2022-11-29T12:44:18.864Z,6.90
2022-11-29T12:47:34.743Z,7.00
2022-11-29T12:50:12.820Z,6.90
2022-11-29T12:52:58.294Z,6.90
2022-11-29T12:55:26.970Z,6.90
2022-11-29T12:58:03.106Z,6.90
2022-11-29T13:00:33.308Z,7.00
2022-11-29T13:03:29.256Z,6.90
2022-11-29T13:06:11.823Z,6.90
2022-11-29T13:08:57.182Z,6.90
2022-11-29T13:11:27.418Z,7.00
2022-11-29T13:14:34.550Z,6.80
2022-11-29T13:16:59.156Z,6.70
2022-11-29T13:19:44.632Z,6.70
2022-11-29T13:22:41.413Z,6.70
2022-11-29T13:25:10.928Z,6.60
2022-11-29T13:27:40.539Z,6.60
2022-11-29T13:30:07.567Z,6.60
2022-11-29T13:32:34.288Z,6.50
2022-11-29T13:35:19.828Z,6.40
2022-11-29T13:38:16.101Z,6.40
2022-11-29T13:40:48.669Z,6.30
2022-11-29T13:43:29.146Z,6.20
2022-11-29T13:46:16.496Z,6.30
2022-11-29T13:48:47.132Z,6.20
2022-11-29T13:51:33.369Z,6.20
2022-11-29T13:54:04.969Z,6.30
2022-11-29T13:56:33.484Z,6.30
2022-11-29T13:59:01.619Z,6.20
2022-11-29T14:01:28.695Z,6.20
2022-11-29T14:04:15.667Z,6.20
2022-11-29T14:06:42.385Z,6.20
2022-11-29T14:09:19.634Z,6.20
2022-11-29T14:11:56.777Z,6.20
2022-11-29T14:14:35.500Z,6.10
2022-11-29T14:17:03.388Z,6.10
2022-11-29T14:19:33.727Z,6.10
2022-11-29T14:22:06.945Z,6.00
2022-11-29T14:24:36.581Z,5.90
2022-11-29T14:27:06.716Z,5.90
2022-11-29T14:29:55.243Z,5.90
2022-11-29T14:32:25.181Z,6.00
2022-11-29T14:34:58.395Z,6.00
2022-11-29T14:37:40.571Z,6.00
2022-11-29T14:40:30.523Z,6.00
2022-11-29T14:42:57.970Z,5.90
2022-11-29T14:45:26.555Z,5.90
2022-11-29T14:47:54.233Z,5.90
2022-11-29T14:50:31.965Z,5.90
2022-11-29T14:52:58.692Z,5.90
2022-11-29T14:55:25.421Z,5.90
2022-11-29T14:58:05.833Z,5.90
2022-11-29T15:00:32.547Z,5.90
2022-11-29T15:02:59.502Z,6.00
2022-11-29T15:05:40.071Z,6.00
2022-11-29T15:08:09.637Z,6.00
2022-11-29T15:10:39.027Z,6.00
2022-11-29T15:13:07.043Z,5.90
2022-11-29T15:16:04.253Z,5.90
2022-11-29T15:18:53.119Z,5.90
2022-11-29T15:21:38.489Z,5.90
2022-11-29T15:24:12.861Z,5.80
2022-11-29T15:26:53.849Z,5.80
2022-11-29T15:29:26.580Z,5.80
2022-11-29T15:31:55.142Z,5.80
2022-11-29T15:34:28.549Z,5.80
2022-11-29T15:36:56.256Z,5.80
2022-11-29T15:39:33.277Z,5.70
2022-11-29T15:42:15.716Z,5.70
2022-11-29T15:44:46.627Z,5.70
2022-11-29T15:47:22.197Z,5.70
2022-11-29T15:49:49.710Z,5.60
2022-11-29T15:54:45.964Z,5.60
2022-11-29T15:57:12.739Z,5.60
2022-11-29T15:59:43.439Z,5.60
2022-11-29T16:02:22.381Z,5.60
2022-11-29T16:04:50.645Z,5.50
2022-11-29T16:07:18.150Z,5.50
2022-11-29T16:09:49.993Z,5.50
2022-11-29T16:12:18.006Z,5.50
2022-11-29T16:14:50.706Z,5.50
2022-11-29T16:17:18.697Z,5.40
2022-11-29T16:19:46.951Z,5.40
2022-11-29T16:22:26.300Z,5.40
2022-11-29T16:24:58.016Z,5.40
2022-11-29T16:27:25.008Z,5.40
2022-11-29T16:29:54.967Z,5.40
2022-11-29T16:32:43.182Z,5.40
2022-11-29T16:35:15.542Z,5.30
2022-11-29T16:37:45.911Z,5.30
2022-11-29T16:40:21.759Z,5.30
2022-11-29T16:43:14.761Z,5.30
2022-11-29T16:45:42.127Z,5.30
2022-11-29T16:48:15.185Z,5.30
2022-11-29T16:50:41.851Z,5.30
2022-11-29T16:53:27.341Z,5.20
2022-11-29T16:55:56.352Z,5.20
2022-11-29T16:58:23.013Z,5.20
2022-11-29T17:00:49.722Z,5.20
2022-11-29T17:03:16.448Z,5.20
2022-11-29T17:05:44.825Z,5.10
2022-11-29T17:08:12.781Z,5.20
2022-11-29T17:10:39.479Z,5.20
2022-11-29T17:13:09.910Z,5.20
2022-11-29T17:15:36.681Z,5.20
2022-11-29T17:18:05.735Z,5.20
2022-11-29T17:20:44.816Z,5.20
2022-11-29T17:23:11.800Z,5.10
2022-11-29T17:25:45.623Z,5.10
2022-11-29T17:28:12.297Z,5.10
2022-11-29T17:30:39.026Z,5.10
2022-11-29T17:33:20.906Z,5.10
2022-11-29T17:35:47.531Z,5.10
2022-11-29T17:38:14.231Z,5.00
2022-11-29T17:40:40.892Z,5.00
2022-11-29T17:43:07.696Z,5.00
2022-11-29T17:45:34.584Z,5.00
2022-11-29T17:48:01.483Z,5.00
2022-11-29T17:50:28.247Z,5.00
2022-11-29T17:52:54.941Z,5.00
2022-11-29T17:58:05.727Z,5.00
2022-11-29T18:00:35.631Z,4.90
2022-11-29T18:03:02.525Z,4.90
2022-11-29T18:05:39.297Z,4.90
2022-11-29T18:08:10.198Z,4.90
2022-11-29T18:10:36.886Z,4.90
2022-11-29T18:13:03.620Z,4.90
2022-11-29T18:15:32.038Z,4.90
2022-11-29T18:17:58.705Z,4.90
2022-11-29T18:20:25.320Z,4.90
2022-11-29T18:22:53.351Z,4.90
2022-11-29T18:25:38.063Z,4.90
2022-11-29T18:28:05.134Z,5.00
2022-11-29T18:30:33.547Z,4.90
2022-11-29T18:33:00.220Z,5.00
2022-11-29T18:35:28.050Z,5.00
2022-11-29T18:38:14.814Z,5.00
2022-11-29T18:40:42.044Z,5.00
2022-11-29T18:43:08.742Z,5.00
2022-11-29T18:45:36.491Z,5.00
2022-11-29T18:48:03.839Z,5.00
2022-11-29T18:50:32.628Z,5.00
2022-11-29T18:52:59.985Z,5.00
2022-11-29T19:02:27.157Z,5.00
2022-11-29T19:05:01.463Z,5.00
2022-11-29T19:07:29.486Z,5.00
2022-11-29T19:09:56.194Z,4.90
2022-11-29T19:12:22.831Z,4.90
2022-11-29T19:14:50.222Z,4.90
2022-11-29T19:17:17.060Z,5.00
2022-11-29T19:19:46.135Z,5.00
2022-11-29T19:25:45.122Z,4.90
2022-11-29T19:28:14.461Z,4.90
2022-11-29T19:30:41.375Z,4.80
2022-11-29T19:33:08.324Z,4.80
2022-11-29T19:35:35.319Z,4.90
2022-11-29T19:38:02.146Z,4.90
2022-11-29T19:44:02.721Z,4.90
2022-11-29T19:46:42.538Z,4.90
2022-11-29T19:49:10.140Z,4.90
2022-11-29T19:51:37.246Z,4.90
2022-11-29T19:54:09.681Z,4.80
2022-11-29T19:56:38.182Z,4.80
2022-11-29T19:59:09.071Z,4.70
2022-11-29T20:01:41.274Z,4.70
2022-11-29T20:04:09.585Z,4.70
2022-11-29T20:06:39.126Z,4.70
2022-11-29T20:09:06.509Z,4.70
2022-11-29T20:11:35.493Z,4.60
2022-11-29T20:14:02.741Z,4.60
2022-11-29T20:16:29.964Z,4.60
2022-11-29T20:18:57.405Z,4.60
2022-11-29T20:21:45.924Z,4.60
2022-11-29T20:24:14.395Z,4.60
2022-11-29T20:26:48.268Z,4.60
2022-11-29T20:29:17.793Z,4.60
2022-11-29T20:31:50.990Z,4.60
2022-11-29T20:34:25.377Z,4.60
2022-11-29T20:37:07.536Z,4.60
2022-11-29T20:39:58.991Z,4.60
2022-11-29T20:42:28.724Z,4.60
2022-11-29T20:44:56.668Z,4.60
2022-11-29T20:47:24.976Z,4.60
2022-11-29T20:49:51.846Z,4.60
2022-11-29T20:52:34.279Z,4.60
2022-11-29T20:55:01.005Z,4.50
2022-11-29T20:57:27.896Z,4.60
2022-11-29T20:59:55.731Z,4.50
2022-11-29T21:02:22.525Z,4.60
2022-11-29T21:04:49.283Z,4.50
2022-11-29T21:07:37.976Z,4.50
2022-11-29T21:10:08.187Z,4.60
2022-11-29T21:12:35.082Z,4.60
2022-11-29T21:15:01.885Z,4.60
2022-11-29T21:17:33.515Z,4.60
2022-11-29T21:20:00.937Z,4.50
2022-11-29T21:22:37.420Z,4.60
2022-11-29T21:25:14.054Z,4.50
2022-11-29T21:27:40.884Z,4.50
2022-11-29T21:30:15.504Z,4.50
2022-11-29T21:32:42.670Z,4.50
2022-11-29T21:35:09.409Z,4.50
2022-11-29T21:37:43.025Z,4.60
2022-11-29T21:40:10.088Z,4.50
2022-11-29T21:42:36.952Z,4.60
2022-11-29T21:45:04.540Z,4.60
2022-11-29T21:47:31.890Z,4.60
2022-11-29T21:49:58.518Z,4.50
2022-11-29T21:52:25.131Z,4.50
2022-11-29T21:54:51.970Z,4.50
2022-11-29T21:57:18.758Z,4.50
2022-11-29T21:59:45.416Z,4.60
2022-11-29T22:02:12.231Z,4.60
2022-11-29T22:04:38.981Z,4.60
2022-11-29T22:07:05.603Z,4.60
2022-11-29T22:09:32.243Z,4.50
2022-11-29T22:11:59.086Z,4.60
2022-11-29T22:14:26.202Z,4.60
2022-11-29T22:16:54.237Z,4.60
2022-11-29T22:19:23.870Z,4.50
2022-11-29T22:21:51.642Z,4.50
2022-11-29T22:24:19.566Z,4.50
2022-11-29T22:26:46.779Z,4.50
2022-11-29T22:29:14.355Z,4.50
2022-11-29T22:31:41.762Z,4.50
2022-11-29T22:34:33.613Z,4.50
2022-11-29T22:37:00.312Z,4.50
2022-11-29T22:39:26.955Z,4.60
2022-11-29T22:41:54.956Z,4.60
2022-11-29T22:44:33.546Z,4.50
2022-11-29T22:47:01.903Z,4.60
2022-11-29T22:49:45.337Z,4.50
2022-11-29T22:52:12.251Z,4.50
2022-11-29T22:54:38.998Z,4.50
2022-11-29T22:57:05.666Z,4.60
2022-11-29T22:59:32.372Z,4.60
2022-11-29T23:01:59.267Z,4.50
2022-11-29T23:04:37.463Z,4.60
2022-11-29T23:07:04.230Z,4.60
2022-11-29T23:09:30.811Z,4.60
2022-11-29T23:11:57.571Z,4.60
2022-11-29T23:14:24.373Z,4.60
2022-11-29T23:16:51.149Z,4.60
2022-11-29T23:19:18.048Z,4.60
2022-11-29T23:21:45.932Z,4.60
2022-11-29T23:24:13.403Z,4.60
2022-11-29T23:26:41.408Z,4.60
2022-11-29T23:29:10.026Z,4.70
2022-11-29T23:31:36.762Z,4.70
2022-11-29T23:34:03.551Z,4.70
2022-11-29T23:36:30.236Z,4.70
2022-11-29T23:38:57.093Z,4.70
2022-11-29T23:41:23.755Z,4.70
2022-11-29T23:43:52.529Z,4.70
2022-11-29T23:46:20.281Z,4.70
2022-11-29T23:48:47.001Z,4.60
2022-11-29T23:51:14.046Z,4.60
2022-11-29T23:53:40.769Z,4.60
2022-11-29T23:56:12.429Z,4.60
2022-11-29T23:58:39.288Z,4.60
